Time;durP1;ratioP1;P1;durP2;ratioP2;P2;SDS_P1;SDS_P2;PMS_P1;PMS_P2;Temp;Humidity;BMP_temperature;BMP_pressure;BME280_temperature;BME280_humidity;BME280_pressure;Samples;Min_cycle;Max_cycle;Signal;HPM_P1;HPM_P2
2023/09/20 00:00:24;;;;;;;1.75;1.40;;;14.50;75.20;;;;;;5073093;28;20021;-79
2023/09/20 00:02:50;;;;;;;3.70;1.60;;;14.50;74.90;;;;;;5073139;28;20116;-79
2023/09/20 00:05:17;;;;;;;4.95;1.95;;;14.50;75.20;;;;;;5056560;28;20064;-79
2023/09/20 00:07:44;;;;;;;2.75;1.60;;;14.50;75.30;;;;;;5073901;28;20110;-79
2023/09/20 00:10:14;;;;;;;3.00;1.98;;;14.50;75.50;;;;;;5072740;28;20029;-80
2023/09/20 00:12:40;;;;;;;3.22;1.88;;;14.50;75.40;;;;;;5072766;28;20029;-79
2023/09/20 00:15:07;;;;;;;7.28;1.98;;;14.40;75.30;;;;;;5072564;28;20027;-79
2023/09/20 00:17:34;;;;;;;5.10;1.58;;;14.30;76.00;;;;;;5074568;28;20044;-79
2023/09/20 00:20:11;;;;;;;3.13;2.00;;;14.30;76.10;;;;;;5073040;28;20016;-79
2023/09/20 00:22:37;;;;;;;3.47;1.85;;;14.20;76.30;;;;;;5072689;28;20103;-77
2023/09/20 00:25:02;;;;;;;5.40;1.77;;;14.20;76.30;;;;;;5072674;28;20023;-78
2023/09/20 00:27:29;;;;;;;2.83;1.77;;;14.10;76.50;;;;;;5072381;28;20037;-78
2023/09/20 00:29:55;;;;;;;3.58;1.60;;;14.20;76.60;;;;;;5072619;28;20021;-78
2023/09/20 00:32:21;;;;;;;4.10;1.63;;;14.20;76.60;;;;;;5072372;28;20457;-77
2023/09/20 00:34:46;;;;;;;3.58;2.00;;;14.20;76.50;;;;;;5072357;28;20048;-77
2023/09/20 00:37:13;;;;;;;4.45;1.80;;;14.20;76.60;;;;;;5072112;28;20052;-78
2023/09/20 00:39:39;;;;;;;5.15;1.70;;;14.10;76.70;;;;;;5073505;28;20072;-80
2023/09/20 00:42:06;;;;;;;3.17;1.90;;;14.20;76.60;;;;;;5072302;28;20111;-80
2023/09/20 00:44:32;;;;;;;4.68;2.15;;;14.10;76.70;;;;;;5072184;28;20487;-79
2023/09/20 00:46:58;;;;;;;4.95;1.67;;;14.10;77.70;;;;;;5072009;28;20082;-82
2023/09/20 00:49:25;;;;;;;3.38;1.85;;;14.00;76.70;;;;;;5071999;28;20021;-80
2023/09/20 00:51:51;;;;;;;3.35;1.90;;;14.00;76.90;;;;;;5071747;28;20028;-78
2023/09/20 00:54:17;;;;;;;6.18;2.17;;;14.00;77.20;;;;;;5072143;28;20042;-79
2023/09/20 00:56:43;;;;;;;3.53;2.13;;;13.90;77.50;;;;;;5073414;28;20028;-79
2023/09/20 00:59:11;;;;;;;2.75;2.05;;;13.90;77.40;;;;;;5071990;28;20021;-79
2023/09/20 01:01:40;;;;;;;2.97;2.10;;;13.90;77.60;;;;;;5055128;28;20127;-78
2023/09/20 01:04:06;;;;;;;5.10;1.63;;;13.80;77.80;;;;;;5071720;28;20362;-78
2023/09/20 01:06:33;;;;;;;3.42;1.92;;;13.90;77.80;;;;;;5071815;28;20043;-78
2023/09/20 01:08:58;;;;;;;3.63;1.88;;;13.80;77.60;;;;;;5072058;28;20032;-77
2023/09/20 01:11:25;;;;;;;5.95;2.13;;;13.80;77.70;;;;;;5071890;28;20142;-78
2023/09/20 01:13:52;;;;;;;3.40;1.63;;;13.80;77.70;;;;;;5072041;28;20040;-78
2023/09/20 01:16:17;;;;;;;3.50;1.77;;;13.80;77.70;;;;;;5071553;28;20052;-77
2023/09/20 01:18:46;;;;;;;4.10;1.73;;;13.70;77.90;;;;;;5071808;28;20025;-78
2023/09/20 01:21:12;;;;;;;4.40;2.17;;;13.70;78.00;;;;;;5071799;28;20036;-78
2023/09/20 01:23:40;;;;;;;2.30;1.70;;;13.60;78.20;;;;;;5073059;28;20039;-77
2023/09/20 01:26:06;;;;;;;4.47;1.98;;;13.60;78.30;;;;;;5071902;28;20029;-78
2023/09/20 01:28:31;;;;;;;3.83;1.65;;;13.60;78.50;;;;;;5074554;28;20094;-80
2023/09/20 01:31:00;;;;;;;3.03;1.83;;;13.60;78.50;;;;;;5075984;28;20027;-78
2023/09/20 01:33:26;;;;;;;2.28;1.83;;;13.60;78.80;;;;;;5075800;28;20111;-79
2023/09/20 01:35:51;;;;;;;3.47;2.00;;;13.70;78.50;;;;;;5075810;28;20032;-77
2023/09/20 01:38:18;;;;;;;2.80;1.83;;;13.70;78.30;;;;;;5075490;28;20436;-77
2023/09/20 01:40:46;;;;;;;2.80;2.22;;;13.70;78.10;;;;;;5075680;28;20459;-77
2023/09/20 01:43:13;;;;;;;5.50;1.85;;;13.60;78.00;;;;;;5077134;28;20076;-77
2023/09/20 01:45:43;;;;;;;2.72;1.63;;;13.60;78.20;;;;;;5075567;28;20024;-78
2023/09/20 01:48:11;;;;;;;3.28;2.03;;;13.70;78.30;;;;;;5059267;28;20035;-77
2023/09/20 01:50:37;;;;;;;5.07;2.00;;;13.70;78.10;;;;;;5075304;28;20020;-78
2023/09/20 01:53:05;;;;;;;3.03;1.92;;;13.70;78.10;;;;;;5075535;28;20499;-77
2023/09/20 01:55:31;;;;;;;5.70;1.75;;;13.70;78.00;;;;;;5075352;28;20031;-78
2023/09/20 01:57:59;;;;;;;4.57;1.90;;;13.70;77.80;;;;;;5075235;28;20025;-77
2023/09/20 02:00:29;;;;;;;4.30;2.17;;;13.60;77.80;;;;;;5075331;28;20021;-78
2023/09/20 02:03:00;;;;;;;2.42;1.80;;;13.50;78.00;;;;;;5075588;28;20039;-78
2023/09/20 02:05:27;;;;;;;3.47;2.15;;;13.50;78.50;;;;;;5075430;28;20063;-78
2023/09/20 02:07:54;;;;;;;6.32;2.22;;;13.40;78.70;;;;;;5075236;28;20089;-77
2023/09/20 02:10:21;;;;;;;4.65;2.22;;;13.40;78.80;;;;;;5075097;28;20021;-77
2023/09/20 02:12:54;;;;;;;5.75;2.60;;;13.50;78.70;;;;;;5075116;28;20111;-81
2023/09/20 02:15:34;;;;;;;4.20;2.22;;;13.50;78.70;;;;;;5074877;28;20112;-78
2023/09/20 02:18:01;;;;;;;4.18;1.90;;;13.50;78.70;;;;;;5075236;28;20044;-78
2023/09/20 02:20:27;;;;;;;3.28;2.10;;;13.50;78.80;;;;;;5074857;28;20020;-78
2023/09/20 02:22:55;;;;;;;4.82;1.77;;;13.50;78.60;;;;;;5074918;28;20095;-79
2023/09/20 02:25:22;;;;;;;3.72;2.17;;;13.60;78.50;;;;;;5074730;28;20020;-79
2023/09/20 02:27:49;;;;;;;3.78;2.17;;;13.50;78.50;;;;;;5074754;28;20127;-79
2023/09/20 02:30:16;;;;;;;3.90;2.33;;;13.60;78.40;;;;;;5076150;28;20507;-79
2023/09/20 02:32:44;;;;;;;3.40;2.00;;;13.60;78.40;;;;;;5074833;28;20041;-82
2023/09/20 02:35:10;;;;;;;3.03;1.98;;;13.60;78.20;;;;;;5074644;28;20025;-80
2023/09/20 02:37:37;;;;;;;3.13;1.83;;;13.50;78.30;;;;;;5074204;28;20026;-78
2023/09/20 02:40:17;;;;;;;3.15;2.00;;;13.50;78.30;;;;;;5074313;28;20027;-80
2023/09/20 02:42:48;;;;;;;4.68;1.95;;;13.40;78.40;;;;;;5074439;28;20417;-82
2023/09/20 02:45:22;;;;;;;3.13;2.00;;;13.40;78.70;;;;;;5073562;28;20028;-81
2023/09/20 02:47:49;;;;;;;4.82;2.22;;;13.30;78.70;;;;;;5074618;28;20040;-78
2023/09/20 02:50:22;;;;;;;4.95;1.88;;;13.20;79.20;;;;;;5074467;28;20464;-79
2023/09/20 02:52:48;;;;;;;5.07;2.30;;;13.20;79.10;;;;;;5058360;28;20071;-79
2023/09/20 02:55:17;;;;;;;3.83;1.98;;;13.20;79.20;;;;;;5075753;28;20025;-78
2023/09/20 02:57:44;;;;;;;3.63;2.10;;;13.20;79.30;;;;;;5073924;28;20380;-78
2023/09/20 03:00:28;;;;;;;6.07;1.83;;;13.20;79.00;;;;;;5073961;28;20481;-78
2023/09/20 03:03:00;;;;;;;4.13;2.17;;;13.20;79.10;;;;;;5074332;28;20025;-77
2023/09/20 03:05:33;;;;;;;4.80;2.38;;;13.10;79.30;;;;;;5074095;28;20029;-78
2023/09/20 03:08:01;;;;;;;4.45;2.10;;;13.10;79.60;;;;;;5057244;28;20068;-78
2023/09/20 03:10:28;;;;;;;4.43;1.95;;;13.00;79.50;;;;;;5074020;28;20031;-78
2023/09/20 03:12:55;;;;;;;4.65;2.22;;;13.10;79.50;;;;;;5074179;28;20119;-79
2023/09/20 03:15:23;;;;;;;7.63;2.13;;;13.10;79.40;;;;;;5074036;28;20021;-78
2023/09/20 03:17:53;;;;;;;3.42;2.00;;;13.10;79.50;;;;;;5073716;28;20136;-78
2023/09/20 03:20:22;;;;;;;5.40;1.98;;;13.00;79.50;;;;;;5073471;28;20036;-78
2023/09/20 03:22:51;;;;;;;3.92;2.10;;;12.90;80.00;;;;;;5073784;28;20028;-78
2023/09/20 03:25:19;;;;;;;5.15;2.30;;;12.90;80.40;;;;;;5074670;28;20028;-78
2023/09/20 03:27:46;;;;;;;3.78;2.20;;;12.90;80.40;;;;;;5073390;28;20089;-77
2023/09/20 03:30:13;;;;;;;5.90;2.17;;;12.90;80.40;;;;;;5073651;28;20468;-78
2023/09/20 03:32:42;;;;;;;4.20;2.42;;;12.80;80.50;;;;;;5073552;28;20024;-78
2023/09/20 03:35:10;;;;;;;3.65;2.05;;;12.80;80.50;;;;;;5074536;28;20547;-78
2023/09/20 03:37:40;;;;;;;4.43;2.30;;;12.80;80.50;;;;;;5073288;28;20457;-78
2023/09/20 03:40:10;;;;;;;4.93;2.53;;;12.80;80.60;;;;;;5073445;28;20620;-77
2023/09/20 03:42:37;;;;;;;3.20;2.17;;;12.60;80.80;;;;;;5073521;28;20123;-78
2023/09/20 03:45:03;;;;;;;5.65;2.22;;;12.70;81.20;;;;;;5073200;28;20032;-78
2023/09/20 03:47:28;;;;;;;4.60;2.45;;;12.60;81.20;;;;;;5073072;28;20396;-77
2023/09/20 03:49:55;;;;;;;3.85;1.90;;;12.60;81.50;;;;;;5072123;28;20403;-78
2023/09/20 03:52:21;;;;;;;2.95;2.10;;;12.60;81.40;;;;;;5073082;28;20491;-78
2023/09/20 03:54:51;;;;;;;3.30;2.17;;;12.70;81.30;;;;;;5072961;28;20062;-78
2023/09/20 03:57:19;;;;;;;5.95;2.13;;;12.60;81.10;;;;;;5073179;28;20115;-79
2023/09/20 03:59:47;;;;;;;5.60;2.30;;;12.60;81.20;;;;;;5073264;28;20027;-78
2023/09/20 04:02:14;;;;;;;3.80;2.08;;;12.60;81.50;;;;;;5056738;28;20033;-78
2023/09/20 04:04:40;;;;;;;5.05;2.28;;;12.50;81.60;;;;;;5073418;28;20025;-78
2023/09/20 04:07:07;;;;;;;6.32;2.78;;;12.50;81.90;;;;;;5072814;28;20503;-78
2023/09/20 04:09:32;;;;;;;4.38;2.17;;;12.40;82.10;;;;;;5079785;28;20415;-77
2023/09/20 04:11:59;;;;;;;5.43;2.28;;;12.40;82.20;;;;;;5076690;28;20020;-76
2023/09/20 04:14:25;;;;;;;6.05;2.63;;;12.30;82.50;;;;;;5076803;28;20025;-78
2023/09/20 04:16:53;;;;;;;7.78;2.28;;;12.30;82.50;;;;;;5074887;28;20106;-78
2023/09/20 04:19:22;;;;;;;5.75;2.45;;;12.40;82.50;;;;;;5072724;28;20450;-78
2023/09/20 04:21:48;;;;;;;4.38;2.22;;;12.40;81.90;;;;;;5072738;28;20182;-78
2023/09/20 04:24:15;;;;;;;6.20;2.60;;;12.50;81.80;;;;;;5072616;28;20048;-79
2023/09/20 04:26:41;;;;;;;3.58;2.00;;;12.50;81.60;;;;;;5073688;28;20493;-78
2023/09/20 04:29:06;;;;;;;3.03;2.13;;;12.50;81.50;;;;;;5073476;28;20048;-77
2023/09/20 04:31:33;;;;;;;6.70;2.75;;;12.50;81.50;;;;;;5072124;28;20085;-78
2023/09/20 04:34:02;;;;;;;5.55;2.40;;;12.50;81.40;;;;;;5072702;28;20017;-78
2023/09/20 04:36:27;;;;;;;3.97;2.22;;;12.50;81.50;;;;;;5072467;28;20025;-78
2023/09/20 04:38:59;;;;;;;3.60;1.75;;;12.60;81.50;;;;;;5074043;28;20127;-78
2023/09/20 04:41:26;;;;;;;5.15;2.28;;;12.60;81.40;;;;;;5077732;28;20107;-78
2023/09/20 04:43:51;;;;;;;6.80;3.10;;;12.50;81.20;;;;;;5072317;28;20028;-77
2023/09/20 04:46:17;;;;;;;4.10;2.58;;;12.50;81.20;;;;;;5072205;28;20087;-78
2023/09/20 04:48:42;;;;;;;3.35;2.30;;;12.50;81.40;;;;;;5072263;28;20048;-77
2023/09/20 04:51:10;;;;;;;6.95;2.70;;;12.40;81.50;;;;;;5071820;28;20021;-77
2023/09/20 04:53:35;;;;;;;5.15;2.50;;;12.40;81.70;;;;;;5072011;28;20094;-77
2023/09/20 04:56:02;;;;;;;5.47;2.70;;;12.40;81.80;;;;;;5071979;28;20476;-77
2023/09/20 04:58:27;;;;;;;6.00;2.58;;;12.40;81.90;;;;;;5072175;28;20020;-77
2023/09/20 05:00:56;;;;;;;2.65;2.10;;;12.30;82.00;;;;;;5072122;28;20358;-78
2023/09/20 05:03:22;;;;;;;10.30;2.45;;;12.40;81.80;;;;;;5071875;28;20024;-78
2023/09/20 05:05:50;;;;;;;7.88;2.67;;;12.30;81.80;;;;;;5071896;28;20480;-78
2023/09/20 05:08:16;;;;;;;7.93;2.58;;;12.30;82.00;;;;;;5071969;28;20057;-77
2023/09/20 05:10:43;;;;;;;5.80;2.95;;;12.30;81.90;;;;;;5072108;28;20479;-76
2023/09/20 05:13:09;;;;;;;7.40;2.55;;;12.40;82.00;;;;;;5071960;28;20113;-77
2023/09/20 05:15:38;;;;;;;5.28;2.45;;;12.30;82.00;;;;;;5072772;28;20020;-77
2023/09/20 05:18:05;;;;;;;7.53;2.90;;;12.30;81.80;;;;;;5071975;28;20123;-77
2023/09/20 05:20:33;;;;;;;6.10;2.55;;;12.30;81.80;;;;;;5072795;28;20070;-77
2023/09/20 05:23:00;;;;;;;3.50;2.22;;;12.30;82.10;;;;;;5071972;28;20025;-77
2023/09/20 05:25:26;;;;;;;4.25;2.67;;;12.30;82.10;;;;;;5072991;28;20481;-77
2023/09/20 05:27:54;;;;;;;5.32;2.55;;;12.40;82.10;;;;;;5072907;28;20067;-77
2023/09/20 05:30:20;;;;;;;7.90;2.88;;;12.40;81.80;;;;;;5071597;28;20023;-77
2023/09/20 05:32:47;;;;;;;5.28;3.13;;;12.40;81.80;;;;;;5072099;28;20033;-78
2023/09/20 05:35:13;;;;;;;10.23;2.88;;;12.40;81.70;;;;;;5071335;28;20020;-77
2023/09/20 05:37:39;;;;;;;7.95;3.40;;;12.40;81.70;;;;;;5071876;28;20032;-77
2023/09/20 05:40:17;;;;;;;7.35;3.10;;;12.50;81.60;;;;;;5072599;28;20048;-78
2023/09/20 05:42:46;;;;;;;7.63;3.50;;;12.40;81.60;;;;;;5073592;28;20060;-78
2023/09/20 05:45:13;;;;;;;6.00;3.45;;;12.40;81.60;;;;;;5071252;28;20025;-77
2023/09/20 05:47:40;;;;;;;4.47;2.97;;;12.40;81.60;;;;;;5071383;28;20142;-77
2023/09/20 05:50:10;;;;;;;5.22;3.65;;;12.50;82.20;;;;;;5071552;28;20017;-78
2023/09/20 05:52:43;;;;;;;7.43;3.40;;;12.60;81.10;;;;;;5071636;28;20024;-77
2023/09/20 05:55:13;;;;;;;5.35;2.78;;;12.60;80.60;;;;;;5073070;28;20048;-78
2023/09/20 05:57:43;;;;;;;7.18;2.85;;;12.70;80.60;;;;;;5071730;28;20021;-78
2023/09/20 06:00:16;;;;;;;7.72;2.97;;;12.80;80.50;;;;;;5071597;28;20031;-78
2023/09/20 06:02:43;;;;;;;4.45;2.97;;;12.80;80.40;;;;;;5074553;28;20089;-77
2023/09/20 06:05:11;;;;;;;5.47;2.72;;;12.90;80.20;;;;;;5076326;28;20078;-77
2023/09/20 06:07:37;;;;;;;6.65;3.47;;;13.00;79.80;;;;;;5071220;28;20098;-77
2023/09/20 06:10:04;;;;;;;5.95;3.17;;;13.20;79.20;;;;;;5071407;28;20473;-77
2023/09/20 06:12:30;;;;;;;4.20;2.60;;;13.20;78.70;;;;;;5071011;28;20032;-78
2023/09/20 06:14:55;;;;;;;4.60;3.00;;;13.30;78.70;;;;;;5074503;28;20389;-77
2023/09/20 06:17:22;;;;;;;6.95;3.08;;;13.30;78.60;;;;;;5074980;28;20052;-77
2023/09/20 06:19:48;;;;;;;5.43;2.88;;;13.40;78.20;;;;;;5075228;28;20031;-77
2023/09/20 06:22:15;;;;;;;4.72;2.72;;;13.40;78.00;;;;;;5074294;28;20032;-78
2023/09/20 06:24:44;;;;;;;5.32;2.70;;;13.50;78.10;;;;;;5074611;28;20024;-78
2023/09/20 06:27:10;;;;;;;9.98;2.78;;;13.50;78.10;;;;;;5074396;28;20036;-77
2023/09/20 06:29:35;;;;;;;7.15;2.47;;;13.50;78.00;;;;;;5074571;28;20024;-76
2023/09/20 06:32:01;;;;;;;7.60;2.70;;;13.60;77.60;;;;;;5074618;28;20167;-77
2023/09/20 06:34:27;;;;;;;5.78;2.85;;;13.60;77.30;;;;;;5074592;28;20051;-77
2023/09/20 06:36:52;;;;;;;4.45;2.75;;;13.70;77.50;;;;;;5074250;28;20464;-78
2023/09/20 06:39:19;;;;;;;4.35;2.63;;;13.80;77.30;;;;;;5077109;28;20025;-78
2023/09/20 06:41:45;;;;;;;5.43;2.53;;;13.90;77.10;;;;;;5074304;28;20031;-78
2023/09/20 06:44:12;;;;;;;4.72;2.67;;;14.00;77.00;;;;;;5074294;28;20370;-78
2023/09/20 06:46:41;;;;;;;5.50;2.83;;;14.10;76.80;;;;;;5075722;28;20025;-78
2023/09/20 06:49:08;;;;;;;7.70;2.72;;;14.20;76.40;;;;;;5057894;28;20134;-77
2023/09/20 06:51:34;;;;;;;4.95;2.60;;;14.30;76.20;;;;;;5074153;28;20484;-77
2023/09/20 06:54:00;;;;;;;5.00;2.40;;;14.40;75.70;;;;;;5074238;28;20122;-77
2023/09/20 06:56:26;;;;;;;5.88;2.22;;;14.60;75.50;;;;;;5074009;28;20041;-79
2023/09/20 06:58:55;;;;;;;5.60;2.33;;;14.70;75.20;;;;;;5074335;28;20108;-76
2023/09/20 07:01:25;;;;;;;7.75;2.63;;;14.90;74.90;;;;;;5075603;28;20029;-78
2023/09/20 07:03:52;;;;;;;5.88;2.35;;;15.00;74.90;;;;;;5075053;28;20024;-75
2023/09/20 07:06:19;;;;;;;7.88;2.92;;;15.20;74.50;;;;;;5073875;28;20062;-77
2023/09/20 07:08:46;;;;;;;5.53;2.53;;;15.40;74.10;;;;;;5074017;28;20024;-78
2023/09/20 07:11:12;;;;;;;4.65;2.30;;;15.60;73.30;;;;;;5073933;28;20029;-76
2023/09/20 07:13:38;;;;;;;4.30;2.28;;;15.60;72.60;;;;;;5075379;28;20020;-78
2023/09/20 07:16:08;;;;;;;4.47;2.00;;;15.70;72.80;;;;;;5074994;28;20047;-77
2023/09/20 07:18:35;;;;;;;5.25;2.42;;;15.70;73.10;;;;;;5073986;28;20020;-78
2023/09/20 07:21:02;;;;;;;9.75;2.17;;;15.80;72.70;;;;;;5074095;28;20074;-77
2023/09/20 07:23:29;;;;;;;5.25;2.38;;;15.80;72.50;;;;;;5074356;28;20090;-79
2023/09/20 07:25:55;;;;;;;3.90;2.13;;;16.00;72.40;;;;;;5074636;28;20547;-78
2023/09/20 07:28:23;;;;;;;5.35;2.28;;;16.10;72.40;;;;;;5077632;28;20111;-78
2023/09/20 07:30:49;;;;;;;3.38;1.92;;;16.20;72.10;;;;;;5073765;28;20032;-78
2023/09/20 07:33:19;;;;;;;7.65;2.15;;;16.30;72.00;;;;;;5073646;28;20354;-77
2023/09/20 07:35:48;;;;;;;3.72;1.80;;;16.40;71.70;;;;;;5073407;28;20020;-78
2023/09/20 07:38:28;;;;;;;3.85;2.15;;;16.50;71.70;;;;;;5074415;28;20480;-79
2023/09/20 07:41:13;;;;;;;9.80;2.97;;;16.60;71.30;;;;;;5073843;28;20025;-78
2023/09/20 07:43:39;;;;;;;3.67;1.87;;;16.90;74.20;;;;;;5073254;28;20029;-82
2023/09/20 07:46:07;;;;;;;4.30;2.10;;;17.10;72.10;;;;;;5073285;28;20021;-82
2023/09/20 07:48:33;;;;;;;7.88;2.53;;;17.30;70.70;;;;;;5073822;28;20054;-78
2023/09/20 07:50:59;;;;;;;5.53;1.77;;;17.40;70.40;;;;;;5073683;28;20021;-78
2023/09/20 07:53:26;;;;;;;4.65;1.90;;;17.60;69.20;;;;;;5076052;28;20044;-79
2023/09/20 07:56:03;;;;;;;5.32;1.95;;;17.80;68.90;;;;;;5075655;28;20025;-80
2023/09/20 07:58:32;;;;;;;5.40;2.17;;;18.00;68.40;;;;;;5077582;28;20016;-80
2023/09/20 08:00:58;;;;;;;2.65;1.52;;;18.30;68.20;;;;;;5078462;28;20467;-79
2023/09/20 08:03:24;;;;;;;6.30;2.10;;;18.50;68.10;;;;;;5075526;28;20029;-78
2023/09/20 08:05:50;;;;;;;4.78;1.95;;;18.70;67.00;;;;;;5072792;28;20017;-79
2023/09/20 08:08:16;;;;;;;3.30;1.73;;;18.90;66.20;;;;;;5072560;28;20029;-77
2023/09/20 08:10:43;;;;;;;5.72;1.65;;;19.10;65.70;;;;;;5072611;28;20021;-78
2023/09/20 08:13:10;;;;;;;4.72;2.13;;;19.30;65.50;;;;;;5073883;28;20035;-78
2023/09/20 08:15:42;;;;;;;3.47;1.80;;;19.50;65.00;;;;;;5073421;28;20016;-77
2023/09/20 08:20:55;;;;;;;6.38;1.98;;;19.60;61.20;;;;;;5073835;28;20519;-79
2023/09/20 09:01:44;;;;;;;3.83;1.33;;;20.50;55.50;;;;;;5073233;28;20028;-77
2023/09/20 09:04:14;;;;;;;1.70;1.05;;;20.60;54.60;;;;;;5072960;28;20024;-78
2023/09/20 09:06:40;;;;;;;2.30;1.17;;;20.70;54.70;;;;;;5072964;28;20481;-77
2023/09/20 09:09:06;;;;;;;1.85;1.08;;;20.80;53.40;;;;;;5071475;28;20028;-77
2023/09/20 09:11:31;;;;;;;3.53;1.52;;;21.00;53.80;;;;;;5073021;28;20034;-77
2023/09/20 09:14:00;;;;;;;3.00;1.48;;;21.00;52.10;;;;;;5073035;28;20070;-77
2023/09/20 09:16:33;;;;;;;1.40;1.10;;;21.10;53.70;;;;;;5072843;28;20475;-77
2023/09/20 09:18:59;;;;;;;2.58;1.30;;;21.10;51.70;;;;;;5071680;28;20028;-78
2023/09/20 09:21:26;;;;;;;3.05;1.25;;;21.30;52.40;;;;;;5072856;28;20024;-78
2023/09/20 09:23:52;;;;;;;2.13;1.17;;;21.60;53.70;;;;;;5055612;28;20470;-75
2023/09/20 09:26:18;;;;;;;1.63;1.08;;;21.60;51.60;;;;;;4970344;28;20062;-74
2023/09/20 09:28:47;;;;;;;1.38;1.02;;;21.60;50.60;;;;;;4970904;28;20062;-78
2023/09/20 09:31:13;;;;;;;1.83;1.00;;;21.70;50.30;;;;;;4971396;28;20031;-78
2023/09/20 09:33:39;;;;;;;1.15;1.00;;;21.60;49.20;;;;;;4971323;28;20529;-77
2023/09/20 09:36:06;;;;;;;1.48;1.15;;;21.70;49.00;;;;;;4971127;28;20129;-77
2023/09/20 09:38:33;;;;;;;1.83;1.15;;;21.90;49.80;;;;;;4969489;28;20118;-77
2023/09/20 09:40:59;;;;;;;1.88;1.05;;;22.00;48.80;;;;;;4970039;28;20109;-76
2023/09/20 09:43:29;;;;;;;2.75;1.10;;;22.10;49.90;;;;;;4971007;28;20454;-78
2023/09/20 09:46:12;;;;;;;2.35;1.20;;;22.20;48.20;;;;;;4970762;28;20118;-77
2023/09/20 09:48:38;;;;;;;1.60;1.00;;;22.20;48.00;;;;;;4971924;28;20035;-79
2023/09/20 09:51:06;;;;;;;2.40;1.33;;;22.20;47.40;;;;;;4974200;28;20471;-80
2023/09/20 09:53:35;;;;;;;1.17;1.05;;;22.40;48.00;;;;;;4974296;28;20030;-77
2023/09/20 09:56:04;;;;;;;3.13;0.88;;;22.40;47.20;;;;;;4974331;28;20175;-79
2023/09/20 09:58:29;;;;;;;2.22;1.20;;;22.30;48.00;;;;;;4974177;28;20031;-76
2023/09/20 10:00:57;;;;;;;3.45;1.02;;;22.30;48.30;;;;;;4972828;28;20075;-77
2023/09/20 10:03:34;;;;;;;1.70;0.98;;;22.50;48.50;;;;;;4972831;28;20034;-78
2023/09/20 10:06:15;;;;;;;4.50;1.48;;;22.40;47.70;;;;;;4974292;28;20030;-76
2023/09/20 10:08:42;;;;;;;2.63;1.40;;;22.50;47.50;;;;;;4975686;28;20038;-77
2023/09/20 10:11:09;;;;;;;1.85;0.93;;;22.60;47.70;;;;;;4973208;28;20022;-77
2023/09/20 10:13:37;;;;;;;1.83;1.13;;;22.60;47.00;;;;;;4974090;28;20057;-76
2023/09/20 10:16:10;;;;;;;2.20;1.10;;;22.60;47.80;;;;;;4972570;28;20042;-78
2023/09/20 10:18:54;;;;;;;3.53;1.35;;;22.70;48.10;;;;;;4972971;28;20046;-78
2023/09/20 10:21:27;;;;;;;1.95;1.10;;;22.80;46.90;;;;;;4972817;28;20023;-78
2023/09/20 10:24:01;;;;;;;3.08;1.08;;;22.70;47.30;;;;;;4972427;28;20035;-80
2023/09/20 10:26:28;;;;;;;2.00;1.10;;;22.40;46.90;;;;;;4973212;28;20026;-78
2023/09/20 10:29:26;;;;;;;1.85;1.00;;;22.50;47.90;;;;;;4974355;28;20037;-78
2023/09/20 10:32:23;;;;;;;3.72;1.40;;;22.80;47.80;;;;;;4956841;28;20033;-78
2023/09/20 10:35:21;;;;;;;2.00;0.98;;;23.20;45.70;;;;;;4960855;28;20439;-77
2023/09/20 10:38:23;;;;;;;1.75;1.05;;;23.50;45.20;;;;;;4972700;28;20066;-78
2023/09/20 10:40:57;;;;;;;2.40;1.10;;;23.50;45.10;;;;;;4966981;28;20119;-78
2023/09/20 10:43:41;;;;;;;1.33;0.90;;;23.60;44.40;;;;;;4973634;28;20023;-78
2023/09/20 10:46:16;;;;;;;10.80;1.10;;;23.80;44.80;;;;;;4973469;28;20023;-78
2023/09/20 10:48:48;;;;;;;3.28;1.10;;;24.00;46.20;;;;;;4972505;28;20135;-78
2023/09/20 10:51:48;;;;;;;2.00;1.00;;;24.00;44.90;;;;;;4973741;28;20031;-78
2023/09/20 10:54:22;;;;;;;2.05;1.17;;;24.30;43.50;;;;;;4972253;28;20027;-78
2023/09/20 10:56:50;;;;;;;2.92;1.17;;;24.40;43.40;;;;;;4972221;28;20023;-80
2023/09/20 10:59:17;;;;;;;2.92;1.30;;;24.60;42.60;;;;;;4972414;28;20118;-82
2023/09/20 11:01:53;;;;;;;2.30;1.40;;;24.30;44.20;;;;;;4972052;28;20030;-78
2023/09/20 11:04:21;;;;;;;4.50;1.15;;;24.40;43.60;;;;;;4971777;28;20035;-78
2023/09/20 11:06:52;;;;;;;2.63;1.38;;;24.70;42.60;;;;;;4971890;28;20126;-78
2023/09/20 11:09:20;;;;;;;1.73;1.10;;;24.90;41.80;;;;;;4972276;28;20034;-79
2023/09/20 11:11:47;;;;;;;1.77;1.10;;;24.90;40.80;;;;;;4956456;28;20069;-79
2023/09/20 11:14:24;;;;;;;3.78;1.10;;;25.10;40.60;;;;;;4972102;28;20031;-82
2023/09/20 11:16:49;;;;;;;3.08;1.25;;;25.20;39.90;;;;;;4972545;28;20085;-80
2023/09/20 11:19:19;;;;;;;4.13;1.00;;;25.10;40.40;;;;;;4965826;28;20059;-80
2023/09/20 11:21:45;;;;;;;2.20;1.13;;;25.10;40.90;;;;;;4954220;28;20047;-80
2023/09/20 11:24:12;;;;;;;3.17;1.30;;;25.30;41.20;;;;;;4956369;28;20506;-78
2023/09/20 11:26:43;;;;;;;2.88;1.02;;;25.10;40.90;;;;;;4955926;29;20031;-77
2023/09/20 11:29:10;;;;;;;2.08;1.00;;;24.90;40.10;;;;;;4952698;29;20475;-80
2023/09/20 11:31:37;;;;;;;1.95;1.10;;;24.60;40.60;;;;;;4954384;29;20023;-81
2023/09/20 11:34:05;;;;;;;3.60;1.20;;;24.60;40.50;;;;;;4953116;28;20031;-82
2023/09/20 11:36:45;;;;;;;1.35;1.15;;;24.90;41.00;;;;;;4952301;28;20380;-80
2023/09/20 11:39:22;;;;;;;1.77;1.00;;;24.80;41.10;;;;;;4952567;29;20039;-81
2023/09/20 11:41:50;;;;;;;2.45;1.02;;;25.30;41.60;;;;;;4952708;29;20423;-79
2023/09/20 11:44:20;;;;;;;3.00;1.02;;;25.80;38.90;;;;;;4952255;28;20026;-78
2023/09/20 11:46:57;;;;;;;2.95;1.45;;;26.10;38.10;;;;;;4953387;28;20067;-77
2023/09/20 11:49:26;;;;;;;3.80;1.20;;;26.40;37.80;;;;;;4952383;29;20034;-78
2023/09/20 11:51:54;;;;;;;1.75;1.13;;;26.30;36.50;;;;;;4951765;28;20019;-76
2023/09/20 11:54:37;;;;;;;2.47;1.05;;;26.00;38.10;;;;;;4953538;28;20484;-78
2023/09/20 11:57:04;;;;;;;2.65;1.30;;;26.10;37.40;;;;;;4954681;28;20081;-77
2023/09/20 11:59:40;;;;;;;1.83;0.88;;;26.40;37.70;;;;;;4955527;28;20089;-77
2023/09/20 12:02:08;;;;;;;2.28;1.13;;;26.70;37.40;;;;;;4952467;29;20027;-78
2023/09/20 12:04:34;;;;;;;2.55;1.13;;;26.70;36.70;;;;;;4952176;28;20035;-78
2023/09/20 12:07:00;;;;;;;2.25;1.13;;;26.20;37.30;;;;;;4952047;29;20033;-77
2023/09/20 12:09:26;;;;;;;1.70;1.02;;;26.00;38.30;;;;;;4951903;28;20027;-77
2023/09/20 12:11:52;;;;;;;1.65;1.15;;;26.20;37.20;;;;;;4951082;29;20033;-77
2023/09/20 12:14:17;;;;;;;1.58;0.90;;;26.30;37.70;;;;;;4951603;28;20122;-78
2023/09/20 12:16:47;;;;;;;1.80;0.90;;;26.50;35.90;;;;;;4951916;28;20051;-78
2023/09/20 12:19:16;;;;;;;1.55;0.95;;;26.80;34.80;;;;;;4951613;28;20032;-79
2023/09/20 12:21:45;;;;;;;1.75;1.02;;;27.10;35.60;;;;;;4959111;28;20043;-78
2023/09/20 12:24:11;;;;;;;1.35;0.90;;;27.30;34.90;;;;;;4944040;28;20361;-78
2023/09/20 12:26:37;;;;;;;1.27;0.90;;;27.10;35.80;;;;;;4970442;28;20066;-78
2023/09/20 12:29:06;;;;;;;2.15;1.10;;;27.50;33.40;;;;;;4970874;28;20081;-79
2023/09/20 12:31:32;;;;;;;1.95;0.75;;;27.60;32.70;;;;;;4971249;28;20096;-80
2023/09/20 12:33:57;;;;;;;0.80;0.80;;;27.80;32.40;;;;;;4971216;28;20019;-81
2023/09/20 12:36:24;;;;;;;1.30;0.85;;;28.30;33.20;;;;;;4971169;28;20058;-81
2023/09/20 12:38:50;;;;;;;2.35;0.82;;;28.70;32.90;;;;;;4970445;28;20027;-79
2023/09/20 12:41:17;;;;;;;1.48;1.02;;;28.70;31.40;;;;;;4970821;28;20467;-80
2023/09/20 12:43:42;;;;;;;0.95;0.80;;;28.40;32.10;;;;;;4970811;28;20047;-81
2023/09/20 12:46:09;;;;;;;1.45;1.10;;;28.00;31.40;;;;;;4972350;28;20110;-79
2023/09/20 12:48:36;;;;;;;1.23;0.90;;;27.90;28.90;;;;;;4973542;28;20035;-79
2023/09/20 12:51:04;;;;;;;1.73;1.00;;;27.60;30.00;;;;;;4955310;28;20065;-79
2023/09/20 12:53:33;;;;;;;1.67;1.02;;;27.30;32.00;;;;;;4970601;28;20368;-78
2023/09/20 12:56:00;;;;;;;1.52;1.02;;;26.80;32.20;;;;;;4971490;28;20030;-80
2023/09/20 12:58:26;;;;;;;1.35;0.80;;;26.80;34.10;;;;;;4972024;28;20106;-81
2023/09/20 13:00:52;;;;;;;2.05;0.75;;;27.00;32.70;;;;;;4970775;28;20025;-79
2023/09/20 13:03:18;;;;;;;2.03;0.90;;;27.00;31.80;;;;;;4970339;28;20030;-81
2023/09/20 13:05:45;;;;;;;3.42;0.85;;;27.00;31.90;;;;;;4970419;28;20034;-80
2023/09/20 13:08:13;;;;;;;2.47;1.00;;;27.10;32.90;;;;;;4970531;28;20043;-79
2023/09/20 13:10:38;;;;;;;1.55;1.23;;;27.30;32.40;;;;;;4970818;28;20038;-78
2023/09/20 13:13:08;;;;;;;1.60;1.10;;;27.70;31.60;;;;;;4970815;28;20027;-78
2023/09/20 13:15:42;;;;;;;2.13;1.02;;;27.90;31.00;;;;;;4970661;28;20558;-75
2023/09/20 13:18:11;;;;;;;1.77;0.70;;;28.30;31.50;;;;;;4970456;28;20039;-75
2023/09/20 13:20:40;;;;;;;1.08;0.70;;;28.30;30.90;;;;;;4970434;28;20027;-77
2023/09/20 13:23:07;;;;;;;1.20;0.95;;;28.00;31.10;;;;;;4970579;28;20035;-76
2023/09/20 13:25:33;;;;;;;0.68;0.68;;;28.10;31.40;;;;;;4970409;28;20164;-76
2023/09/20 13:27:59;;;;;;;1.33;0.88;;;28.30;30.30;;;;;;4970409;28;20031;-73
2023/09/20 13:30:26;;;;;;;1.48;0.82;;;28.40;28.20;;;;;;4971270;28;20034;-80
2023/09/20 13:33:01;;;;;;;2.15;0.70;;;28.60;28.70;;;;;;4970580;28;20494;-79